createdAt,value
2018-12-29T00:01:22.191Z,29.17
2018-12-29T00:03:50.805Z,27.77
2018-12-29T00:06:19.484Z,31.40
2018-12-29T00:08:51.063Z,24.57
2018-12-29T00:11:31.525Z,29.50
2018-12-29T00:14:06.085Z,26.20
2018-12-29T00:16:34.689Z,30.03
2018-12-29T00:19:03.515Z,25.53
2018-12-29T00:21:34.705Z,28.20
2018-12-29T00:24:03.051Z,31.50
2018-12-29T00:26:32.219Z,23.30
2018-12-29T00:29:01.350Z,29.70
2018-12-29T00:31:30.025Z,27.87
2018-12-29T00:34:01.559Z,26.40
2018-12-29T00:36:30.449Z,27.70
2018-12-29T00:38:58.889Z,26.60
2018-12-29T00:41:30.186Z,26.53
2018-12-29T00:43:58.763Z,28.87
2018-12-29T00:46:27.495Z,24.53
2018-12-29T00:48:56.226Z,25.57
2018-12-29T00:51:24.886Z,24.63
2018-12-29T00:53:53.511Z,28.10
2018-12-29T00:56:22.337Z,21.27
2018-12-29T00:58:53.276Z,23.47
2018-12-29T01:01:21.964Z,26.33
2018-12-29T01:03:50.524Z,26.57
2018-12-29T01:06:19.388Z,26.87
2018-12-29T01:08:47.990Z,22.87
2018-12-29T01:11:16.609Z,23.40
2018-12-29T01:13:45.220Z,23.40
2018-12-29T01:16:14.134Z,24.70
2018-12-29T01:18:43.075Z,24.10
2018-12-29T01:21:11.652Z,19.87
2018-12-29T01:23:43.266Z,19.93
2018-12-29T01:26:14.016Z,22.97
2018-12-29T01:28:42.728Z,24.33
2018-12-29T01:31:11.262Z,27.33
2018-12-29T01:33:42.560Z,28.03
2018-12-29T01:36:11.098Z,23.77
2018-12-29T01:38:40.642Z,25.10
2018-12-29T01:41:09.290Z,25.93
2018-12-29T01:43:39.862Z,23.37
2018-12-29T01:46:08.393Z,20.73
2018-12-29T01:48:39.470Z,23.17
2018-12-29T01:51:07.923Z,22.70
2018-12-29T01:53:36.378Z,28.50
2018-12-29T01:56:05.170Z,26.40
2018-12-29T01:58:33.825Z,25.23
2018-12-29T02:01:02.338Z,21.10
2018-12-29T02:03:30.826Z,21.53
2018-12-29T02:05:59.420Z,23.53
2018-12-29T02:08:27.987Z,24.90
2018-12-29T02:10:56.387Z,24.97
2018-12-29T02:13:28.325Z,20.43
2018-12-29T02:15:56.803Z,21.70
2018-12-29T02:18:25.491Z,23.73
2018-12-29T02:20:54.211Z,20.87
2018-12-29T02:23:22.603Z,20.40
2018-12-29T02:25:51.198Z,22.90
2018-12-29T02:28:19.799Z,22.63
2018-12-29T02:30:48.332Z,27.90
2018-12-29T02:33:16.861Z,23.53
2018-12-29T02:35:48.415Z,21.67
2018-12-29T02:38:17.101Z,22.03
2018-12-29T02:40:45.734Z,18.90
2018-12-29T02:43:14.266Z,24.03
2018-12-29T02:45:42.812Z,20.97
2018-12-29T02:48:11.559Z,23.30
2018-12-29T02:50:40.220Z,25.03
2018-12-29T02:53:08.740Z,23.03
2018-12-29T02:55:37.318Z,23.83
2018-12-29T02:58:05.912Z,19.60
2018-12-29T03:00:34.482Z,21.93
2018-12-29T03:03:04.424Z,22.17
2018-12-29T03:05:33.042Z,23.70
2018-12-29T03:08:04.656Z,18.53
2018-12-29T03:10:33.052Z,21.80
2018-12-29T03:13:01.690Z,18.53
2018-12-29T03:15:30.198Z,24.20
2018-12-29T03:17:58.748Z,20.77
2018-12-29T03:20:27.365Z,17.23
2018-12-29T03:22:55.990Z,18.70
2018-12-29T03:25:24.626Z,18.47
2018-12-29T03:27:53.175Z,15.67
2018-12-29T03:30:22.219Z,18.10
2018-12-29T03:32:50.663Z,22.57
2018-12-29T03:35:19.189Z,16.17
2018-12-29T03:37:47.655Z,17.10
2018-12-29T03:40:17.385Z,17.60
2018-12-29T03:42:45.963Z,17.00
2018-12-29T03:45:14.421Z,16.43
2018-12-29T03:47:43.225Z,14.57
2018-12-29T03:50:12.401Z,15.33
2018-12-29T03:52:43.939Z,13.30
2018-12-29T03:55:13.120Z,13.93
2018-12-29T03:57:42.623Z,17.23
2018-12-29T04:00:11.275Z,17.07
2018-12-29T04:02:42.580Z,13.63
2018-12-29T04:05:11.306Z,14.70
2018-12-29T04:07:40.022Z,13.63
2018-12-29T04:10:11.713Z,17.13
2018-12-29T04:12:40.435Z,12.57
2018-12-29T04:15:09.104Z,10.60
2018-12-29T04:17:37.706Z,13.10
2018-12-29T04:20:06.356Z,14.27
2018-12-29T04:22:34.941Z,9.73
2018-12-29T04:25:03.583Z,11.43
2018-12-29T04:27:32.350Z,12.07
2018-12-29T04:30:00.767Z,11.07
2018-12-29T04:32:29.480Z,13.63
2018-12-29T04:34:58.132Z,11.00
2018-12-29T04:37:26.699Z,13.40
2018-12-29T04:39:55.657Z,10.63
2018-12-29T04:42:24.127Z,16.10
2018-12-29T04:44:53.219Z,12.27
2018-12-29T04:47:21.718Z,14.00
2018-12-29T04:49:50.187Z,11.90
2018-12-29T04:52:20.409Z,12.50
2018-12-29T04:54:48.923Z,9.53
2018-12-29T04:57:17.477Z,11.97
2018-12-29T04:59:46.064Z,14.67
2018-12-29T05:02:14.850Z,11.47
2018-12-29T05:04:43.505Z,14.43
2018-12-29T05:07:12.058Z,12.83
2018-12-29T05:09:40.659Z,13.07
2018-12-29T05:12:09.088Z,13.77
2018-12-29T05:14:37.597Z,16.90
2018-12-29T05:17:06.017Z,11.53
2018-12-29T05:19:34.702Z,16.07
2018-12-29T05:22:04.199Z,10.50
2018-12-29T05:24:32.825Z,10.97
2018-12-29T05:27:01.313Z,11.27
2018-12-29T05:29:29.788Z,12.13
2018-12-29T05:31:59.832Z,14.27
2018-12-29T05:34:28.389Z,12.27
2018-12-29T05:36:56.805Z,11.40
2018-12-29T05:39:25.493Z,13.30
2018-12-29T05:41:53.979Z,10.83
2018-12-29T05:44:22.394Z,13.17
2018-12-29T05:46:50.861Z,12.40
2018-12-29T05:49:19.730Z,14.73
2018-12-29T05:51:48.238Z,13.90
2018-12-29T05:54:16.781Z,18.43
2018-12-29T05:56:45.643Z,12.80
2018-12-29T05:59:14.293Z,12.40
2018-12-29T06:01:42.732Z,10.60
2018-12-29T06:04:11.744Z,14.43
2018-12-29T06:06:40.247Z,15.03
2018-12-29T06:09:08.912Z,13.67
2018-12-29T06:11:37.562Z,14.10
2018-12-29T06:14:06.002Z,12.37
2018-12-29T06:16:34.574Z,14.67
2018-12-29T06:19:03.173Z,14.20
2018-12-29T06:21:31.946Z,12.20
2018-12-29T06:24:00.511Z,13.57
2018-12-29T06:26:30.105Z,11.23
2018-12-29T06:28:58.630Z,16.53
2018-12-29T06:31:30.040Z,14.37
2018-12-29T06:34:01.821Z,12.80
2018-12-29T06:36:32.084Z,12.10
2018-12-29T06:39:00.585Z,15.30
2018-12-29T06:41:29.080Z,12.83
2018-12-29T06:43:57.560Z,13.87
2018-12-29T06:46:34.606Z,12.70
2018-12-29T06:48:57.816Z,10.80
2018-12-29T06:51:26.378Z,13.17
2018-12-29T06:53:54.796Z,10.77
2018-12-29T06:56:23.348Z,12.30
2018-12-29T06:58:51.766Z,11.30
2018-12-29T07:01:20.308Z,11.27
2018-12-29T07:03:48.948Z,10.20
2018-12-29T07:06:17.427Z,14.50
2018-12-29T07:08:45.876Z,10.13
2018-12-29T07:11:14.346Z,10.43
2018-12-29T07:13:42.843Z,10.10
2018-12-29T07:16:11.330Z,15.33
2018-12-29T07:18:39.972Z,11.70
2018-12-29T07:21:08.522Z,10.57
2018-12-29T07:23:37.172Z,10.03
2018-12-29T07:26:05.673Z,11.00
2018-12-29T07:28:34.374Z,8.47
2018-12-29T07:31:02.834Z,7.73
2018-12-29T07:33:31.459Z,10.57
2018-12-29T07:35:59.970Z,10.40
2018-12-29T07:38:28.534Z,9.73
2018-12-29T07:40:57.162Z,8.20
2018-12-29T07:43:25.696Z,10.33
2018-12-29T07:45:54.320Z,9.77
2018-12-29T07:48:22.898Z,10.67
2018-12-29T07:50:51.496Z,9.67
2018-12-29T07:53:19.961Z,10.73
2018-12-29T07:55:48.548Z,10.67
2018-12-29T07:58:35.408Z,8.33
2018-12-29T08:01:03.920Z,10.55
2018-12-29T08:03:32.318Z,10.67
2018-12-29T08:06:00.980Z,12.27
2018-12-29T08:08:29.589Z,8.00
2018-12-29T08:10:58.249Z,12.03
2018-12-29T08:13:26.884Z,11.37
2018-12-29T08:15:58.571Z,16.53
2018-12-29T08:18:27.524Z,14.60
2018-12-29T08:20:57.137Z,12.97
2018-12-29T08:23:25.929Z,10.43
2018-12-29T08:25:54.611Z,10.53
2018-12-29T08:28:23.158Z,9.03
2018-12-29T08:30:51.615Z,10.23
2018-12-29T08:33:20.165Z,14.63
2018-12-29T08:35:49.090Z,14.50
2018-12-29T08:38:17.675Z,14.20
2018-12-29T08:40:46.210Z,14.03
2018-12-29T08:43:15.217Z,12.23
2018-12-29T08:45:43.800Z,13.97
2018-12-29T08:48:14.079Z,14.23
2018-12-29T08:50:42.626Z,17.83
2018-12-29T08:53:11.074Z,18.37
2018-12-29T08:55:39.670Z,23.90
2018-12-29T08:58:09.547Z,21.70
2018-12-29T09:00:38.027Z,17.23
2018-12-29T09:03:06.536Z,22.13
2018-12-29T09:05:35.120Z,18.40
2018-12-29T09:08:05.546Z,22.10
2018-12-29T09:10:34.092Z,20.80
2018-12-29T09:13:02.596Z,21.10
2018-12-29T09:15:31.433Z,22.53
2018-12-29T09:17:59.835Z,23.20
2018-12-29T09:20:28.308Z,22.57
2018-12-29T09:22:56.967Z,22.63
2018-12-29T09:25:25.538Z,35.00
2018-12-29T09:28:03.707Z,30.50
2018-12-29T09:30:34.552Z,30.07
2018-12-29T09:33:04.984Z,29.13
2018-12-29T09:35:37.220Z,33.13
2018-12-29T09:38:05.806Z,29.60
2018-12-29T09:40:34.479Z,30.90
2018-12-29T09:43:03.256Z,30.37
2018-12-29T09:45:31.902Z,34.03
2018-12-29T09:48:00.842Z,38.33
2018-12-29T09:50:29.452Z,31.17
2018-12-29T09:52:58.096Z,35.87
2018-12-29T09:55:26.682Z,32.77
2018-12-29T09:57:56.223Z,35.00
2018-12-29T10:00:24.749Z,36.70
2018-12-29T10:02:53.811Z,34.10
2018-12-29T10:05:25.182Z,34.87
2018-12-29T10:07:57.947Z,31.70
2018-12-29T10:10:26.827Z,31.00
2018-12-29T10:12:56.598Z,33.67
2018-12-29T10:15:28.282Z,28.13
2018-12-29T10:18:00.023Z,28.53
2018-12-29T10:20:28.602Z,31.27
2018-12-29T10:22:57.330Z,26.63
2018-12-29T10:25:25.942Z,31.17
2018-12-29T10:27:54.693Z,28.87
2018-12-29T10:30:23.446Z,36.83
2018-12-29T10:32:53.120Z,31.37
2018-12-29T10:35:23.509Z,33.33
2018-12-29T10:38:00.788Z,32.07
2018-12-29T10:40:43.748Z,31.67
2018-12-29T10:43:12.314Z,32.57
2018-12-29T10:45:41.110Z,31.50
2018-12-29T10:48:09.605Z,31.27
2018-12-29T10:50:38.162Z,32.30
2018-12-29T10:53:06.775Z,34.80
2018-12-29T10:55:35.619Z,36.03
2018-12-29T10:58:04.237Z,32.20
2018-12-29T11:00:35.158Z,24.37
2018-12-29T11:03:03.112Z,20.83
2018-12-29T11:05:32.805Z,19.50
2018-12-29T11:08:01.456Z,21.17
2018-12-29T11:10:30.276Z,21.87
2018-12-29T11:12:59.079Z,18.73
2018-12-29T11:15:27.705Z,21.57
2018-12-29T11:17:56.403Z,21.97
2018-12-29T11:20:25.065Z,24.13
2018-12-29T11:22:56.438Z,21.97
2018-12-29T11:25:24.957Z,18.80
2018-12-29T11:27:53.776Z,19.77
2018-12-29T11:30:22.412Z,20.10
2018-12-29T11:32:51.948Z,25.13
2018-12-29T11:35:20.729Z,23.60
2018-12-29T11:37:49.154Z,22.70
2018-12-29T11:40:17.697Z,24.53
2018-12-29T11:42:48.734Z,26.97
2018-12-29T11:45:17.531Z,25.73
2018-12-29T11:47:49.732Z,26.30
2018-12-29T11:50:16.338Z,22.50
2018-12-29T11:52:46.991Z,23.27
2018-12-29T11:55:15.655Z,20.53
2018-12-29T11:57:44.421Z,22.40
2018-12-29T12:00:13.420Z,22.07
2018-12-29T12:02:42.967Z,22.27
2018-12-29T12:05:11.680Z,19.57
2018-12-29T12:07:41.319Z,21.83
2018-12-29T12:10:10.070Z,20.40
2018-12-29T12:12:39.064Z,17.27
2018-12-29T12:15:07.811Z,16.80
2018-12-29T12:17:36.403Z,19.20
2018-12-29T12:20:05.864Z,19.40
2018-12-29T12:22:34.460Z,23.37
2018-12-29T12:25:03.070Z,24.50
2018-12-29T12:27:32.603Z,23.00
2018-12-29T12:30:02.569Z,23.67
2018-12-29T12:32:31.463Z,20.97
2018-12-29T12:35:02.120Z,27.70
2018-12-29T12:37:32.301Z,20.53
2018-12-29T12:40:02.928Z,23.27
2018-12-29T12:42:31.489Z,21.27
2018-12-29T12:45:40.042Z,21.90
2018-12-29T12:48:44.367Z,22.33
2018-12-29T12:51:19.875Z,28.43
2018-12-29T12:53:48.880Z,26.73
2018-12-29T12:56:37.560Z,25.37
2018-12-29T12:59:06.389Z,27.07
2018-12-29T13:01:34.992Z,27.80
2018-12-29T13:04:05.634Z,29.00
2018-12-29T13:06:34.609Z,30.40
2018-12-29T13:09:04.072Z,28.53
2018-12-29T13:11:32.857Z,29.17
2018-12-29T13:14:01.474Z,31.27
2018-12-29T13:16:29.991Z,28.50
2018-12-29T13:18:58.669Z,33.17
2018-12-29T13:21:27.293Z,35.27
2018-12-29T13:23:56.262Z,33.93
2018-12-29T13:26:27.798Z,32.87
2018-12-29T13:28:56.400Z,30.90
2018-12-29T13:31:24.930Z,30.93
2018-12-29T13:33:53.372Z,31.73
2018-12-29T13:36:27.999Z,32.00
2018-12-29T13:38:57.684Z,31.37
2018-12-29T13:41:26.453Z,30.10
2018-12-29T13:43:55.906Z,32.33
2018-12-29T13:46:24.458Z,33.77
2018-12-29T13:48:53.217Z,29.97
2018-12-29T13:51:21.928Z,28.77
2018-12-29T13:53:50.519Z,29.90
2018-12-29T13:56:19.986Z,33.03
2018-12-29T13:58:48.706Z,32.77
2018-12-29T14:01:17.484Z,32.17
2018-12-29T14:03:45.972Z,33.93
2018-12-29T14:06:14.599Z,30.67
2018-12-29T14:08:43.294Z,28.83
2018-12-29T14:11:11.862Z,33.07
2018-12-29T14:13:40.820Z,31.07
2018-12-29T14:16:09.368Z,29.30
2018-12-29T14:18:40.306Z,35.03
2018-12-29T14:21:09.345Z,31.20
2018-12-29T14:23:37.864Z,30.73
2018-12-29T14:26:09.339Z,28.40
2018-12-29T14:28:38.040Z,26.17
2018-12-29T14:31:10.061Z,33.87
2018-12-29T14:33:38.720Z,23.50
2018-12-29T14:36:07.276Z,24.23
2018-12-29T14:38:35.810Z,23.43
2018-12-29T14:41:04.423Z,25.67
2018-12-29T14:43:33.004Z,24.70
2018-12-29T14:46:01.839Z,20.47
2018-12-29T14:48:35.788Z,20.87
2018-12-29T14:51:03.184Z,22.30
2018-12-29T14:53:31.958Z,22.33
2018-12-29T14:56:06.836Z,24.97
2018-12-29T14:58:53.708Z,26.60
2018-12-29T15:01:18.486Z,24.53
2018-12-29T15:03:49.025Z,21.30
2018-12-29T15:06:17.685Z,23.40
2018-12-29T15:08:48.316Z,25.90
2018-12-29T15:11:16.859Z,23.57
2018-12-29T15:13:45.355Z,23.83
2018-12-29T15:16:15.516Z,25.23
2018-12-29T15:18:44.411Z,30.27
2018-12-29T15:21:13.245Z,24.73
2018-12-29T15:23:41.796Z,27.77
2018-12-29T15:26:10.850Z,25.77
2018-12-29T15:28:43.345Z,31.27
2018-12-29T15:31:16.426Z,26.40
2018-12-29T15:33:44.910Z,29.30
2018-12-29T15:36:16.182Z,29.43
2018-12-29T15:38:43.951Z,31.87
2018-12-29T15:41:15.559Z,31.47
2018-12-29T15:43:44.168Z,31.03
2018-12-29T15:46:12.918Z,32.73
2018-12-29T15:48:41.594Z,32.67
2018-12-29T15:51:10.243Z,32.30
2018-12-29T15:53:57.828Z,32.97
2018-12-29T15:57:21.228Z,35.60
2018-12-29T16:00:29.672Z,33.07
2018-12-29T16:03:00.301Z,34.33
2018-12-29T16:05:48.216Z,39.80
2018-12-29T16:08:22.604Z,39.93
2018-12-29T16:11:47.082Z,36.00
2018-12-29T16:14:18.430Z,37.40
2018-12-29T16:17:05.519Z,35.13
2018-12-29T16:19:34.028Z,33.50
2018-12-29T16:22:02.673Z,37.47
2018-12-29T16:24:31.517Z,40.57
2018-12-29T16:27:15.267Z,41.53
2018-12-29T16:29:47.052Z,44.53
2018-12-29T16:32:20.631Z,40.67
2018-12-29T16:34:51.440Z,40.20
2018-12-29T16:37:24.350Z,40.40
2018-12-29T16:39:54.038Z,42.67
2018-12-29T16:42:41.078Z,41.90
2018-12-29T16:45:30.751Z,42.83
2018-12-29T16:47:59.254Z,36.70
2018-12-29T16:50:29.428Z,42.70
2018-12-29T16:53:04.346Z,44.83
2018-12-29T16:55:37.557Z,41.80
2018-12-29T16:58:14.467Z,51.20
2018-12-29T17:00:48.365Z,45.17
2018-12-29T17:03:17.241Z,53.83
2018-12-29T17:05:49.319Z,49.17
2018-12-29T17:08:18.075Z,49.33
2018-12-29T17:10:52.816Z,54.67
2018-12-29T17:13:21.514Z,55.33
2018-12-29T17:15:49.995Z,54.70
2018-12-29T17:18:18.661Z,54.53
2018-12-29T17:20:47.460Z,52.00
2018-12-29T17:23:20.689Z,54.43
2018-12-29T17:25:49.303Z,58.20
2018-12-29T17:28:18.941Z,64.97
2018-12-29T17:31:10.494Z,63.73
2018-12-29T17:33:58.515Z,67.47
2018-12-29T17:36:27.455Z,66.73
2018-12-29T17:38:56.505Z,67.47
2018-12-29T17:41:29.561Z,60.43
2018-12-29T17:43:59.993Z,58.87
2018-12-29T17:46:30.641Z,51.33
2018-12-29T17:49:01.041Z,62.87
2018-12-29T17:51:32.409Z,60.97
2018-12-29T17:54:02.729Z,68.60
2018-12-29T17:56:33.022Z,62.70
2018-12-29T17:59:03.189Z,68.67
2018-12-29T18:01:31.791Z,72.27
2018-12-29T18:04:23.141Z,61.77
2018-12-29T18:06:50.535Z,68.53
2018-12-29T18:09:25.229Z,73.03
2018-12-29T18:11:51.927Z,65.73
2018-12-29T18:14:20.401Z,73.80
2018-12-29T18:16:50.932Z,74.33
2018-12-29T18:19:20.307Z,76.03
2018-12-29T18:21:48.851Z,69.00
2018-12-29T18:24:37.686Z,69.83
2018-12-29T18:27:06.340Z,72.67
2018-12-29T18:29:37.950Z,72.93
2018-12-29T18:32:06.749Z,76.13
2018-12-29T18:34:35.743Z,75.70
2018-12-29T18:37:07.148Z,70.97
2018-12-29T18:39:37.263Z,79.87
2018-12-29T18:42:05.777Z,82.80
2018-12-29T18:44:34.515Z,73.40
2018-12-29T18:47:03.187Z,78.17
2018-12-29T18:49:38.400Z,68.40
2018-12-29T18:52:07.730Z,75.77
2018-12-29T18:54:39.361Z,70.30
2018-12-29T18:57:11.172Z,77.60
2018-12-29T18:59:54.474Z,81.43
2018-12-29T19:02:23.152Z,76.30
2018-12-29T19:04:55.778Z,73.63
2018-12-29T19:07:26.135Z,88.87
2018-12-29T19:09:55.322Z,79.30
2018-12-29T19:12:29.761Z,86.07
2018-12-29T19:14:58.398Z,87.30
2018-12-29T19:17:27.736Z,83.67
2018-12-29T19:20:00.824Z,82.27
2018-12-29T19:22:34.064Z,85.20
2018-12-29T19:25:02.784Z,87.47
2018-12-29T19:30:43.589Z,90.53
2018-12-29T19:33:31.957Z,79.03
2018-12-29T19:36:43.305Z,89.47
2018-12-29T19:39:12.324Z,83.70
2018-12-29T19:41:46.535Z,88.60
2018-12-29T19:44:11.438Z,88.00
2018-12-29T19:46:42.341Z,83.87
2018-12-29T19:49:11.150Z,91.77
2018-12-29T19:51:39.966Z,90.23
2018-12-29T19:54:10.271Z,102.87
2018-12-29T19:56:39.125Z,89.37
2018-12-29T19:59:08.050Z,82.57
2018-12-29T20:01:36.656Z,87.23
2018-12-29T20:04:05.586Z,86.33
2018-12-29T20:06:34.185Z,82.80
2018-12-29T20:09:02.649Z,86.30
2018-12-29T20:11:31.432Z,84.63
2018-12-29T20:14:00.116Z,88.67
2018-12-29T20:16:28.821Z,87.80
2018-12-29T20:19:06.286Z,84.07
2018-12-29T20:21:34.878Z,80.60
2018-12-29T20:24:07.081Z,85.37
2018-12-29T20:26:41.178Z,88.30
2018-12-29T20:29:12.304Z,88.07
2018-12-29T20:31:48.543Z,84.13
2018-12-29T20:34:17.543Z,93.33
2018-12-29T20:36:46.440Z,90.37
2018-12-29T20:42:18.777Z,88.20
2018-12-29T20:44:54.940Z,81.73
2018-12-29T20:47:34.803Z,84.87
2018-12-29T20:50:09.575Z,85.37
2018-12-29T20:52:39.820Z,87.93
2018-12-29T20:55:17.237Z,84.37
2018-12-29T20:57:52.671Z,91.93
2018-12-29T21:00:34.028Z,82.20
2018-12-29T21:03:09.241Z,77.13
2018-12-29T21:05:49.338Z,82.80
2018-12-29T21:08:25.728Z,84.47
2018-12-29T21:10:56.704Z,87.53
2018-12-29T21:13:28.788Z,82.13
2018-12-29T21:16:09.761Z,80.13
2018-12-29T21:18:40.791Z,67.80
2018-12-29T21:21:14.518Z,80.37
2018-12-29T21:23:49.949Z,70.50
2018-12-29T21:26:21.291Z,74.13
2018-12-29T21:28:52.342Z,65.70
2018-12-29T21:31:24.556Z,62.87
2018-12-29T21:33:59.801Z,64.70
2018-12-29T21:36:34.706Z,60.73
2018-12-29T21:39:04.953Z,66.53
2018-12-29T21:41:36.761Z,53.17
2018-12-29T21:44:09.188Z,54.43
2018-12-29T21:46:39.192Z,57.07
2018-12-29T21:49:07.662Z,53.73
2018-12-29T21:51:36.510Z,62.57
2018-12-29T21:54:07.061Z,61.67
2018-12-29T21:56:35.638Z,59.87
2018-12-29T21:59:06.553Z,62.97
2018-12-29T22:01:37.716Z,52.03
2018-12-29T22:04:07.656Z,53.00
2018-12-29T22:06:36.440Z,48.77
2018-12-29T22:09:09.413Z,50.57
2018-12-29T22:11:39.431Z,48.00
2018-12-29T22:14:08.153Z,54.23
2018-12-29T22:16:39.149Z,50.30
2018-12-29T22:19:27.111Z,55.63
2018-12-29T22:22:00.250Z,51.97
2018-12-29T22:24:31.497Z,67.53
2018-12-29T22:27:00.322Z,68.13
2018-12-29T22:29:28.884Z,74.40
2018-12-29T22:31:58.687Z,78.77
2018-12-29T22:34:38.590Z,74.50
2018-12-29T22:37:07.210Z,74.83
2018-12-29T22:39:43.851Z,76.87
2018-12-29T22:42:10.141Z,86.63
2018-12-29T22:44:40.727Z,84.50
2018-12-29T22:47:23.346Z,84.03
2018-12-29T22:49:59.357Z,81.83
2018-12-29T22:52:30.224Z,74.73
2018-12-29T22:55:05.430Z,78.97
2018-12-29T22:57:35.728Z,80.33
2018-12-29T23:00:14.129Z,76.63
2018-12-29T23:02:44.929Z,79.23
2018-12-29T23:05:52.449Z,73.60
2018-12-29T23:11:54.065Z,69.67
2018-12-29T23:14:38.057Z,71.13
2018-12-29T23:17:25.512Z,70.17
2018-12-29T23:20:00.532Z,77.40
2018-12-29T23:22:27.317Z,68.97
2018-12-29T23:24:55.821Z,70.47
2018-12-29T23:27:49.581Z,66.47
2018-12-29T23:30:08.069Z,63.73
2018-12-29T23:32:54.543Z,63.97
2018-12-29T23:36:10.353Z,61.43
2018-12-29T23:42:36.492Z,55.30
2018-12-29T23:48:09.042Z,55.33
2018-12-29T23:50:39.099Z,56.17
2018-12-29T23:53:07.668Z,64.60
2018-12-29T23:55:36.776Z,61.73
2018-12-29T23:58:35.831Z,59.27
